createdAt,value
2022-12-08T00:00:44.712Z,96584.47
2022-12-08T00:03:13.677Z,96575.75
2022-12-08T00:06:03.489Z,96575.50
2022-12-08T00:08:49.994Z,96577.63
2022-12-08T00:11:19.703Z,96573.63
2022-12-08T00:13:48.507Z,96573.41
2022-12-08T00:16:18.737Z,96568.41
2022-12-08T00:18:47.692Z,96568.41
2022-12-08T00:21:16.476Z,96562.28
2022-12-08T00:23:45.475Z,96561.19
2022-12-08T00:26:14.386Z,96554.81
2022-12-08T00:28:43.800Z,96556.41
2022-12-08T00:31:16.426Z,96553.78
2022-12-08T00:33:46.899Z,96545.84
2022-12-08T00:36:16.506Z,96551.16
2022-12-08T00:38:47.345Z,96542.63
2022-12-08T00:41:17.750Z,96545.81
2022-12-08T00:43:47.322Z,96541.06
2022-12-08T00:46:16.107Z,96540.25
2022-12-08T00:48:46.796Z,96548.25
2022-12-08T00:51:15.595Z,96555.94
2022-12-08T00:53:44.484Z,96554.56
2022-12-08T00:56:13.476Z,96542.13
2022-12-08T00:58:42.350Z,96539.44
2022-12-08T01:01:12.098Z,96540.75
2022-12-08T01:03:41.643Z,96545.00
2022-12-08T01:06:12.731Z,96547.91
2022-12-08T01:08:42.135Z,96549.28
2022-12-08T01:11:15.072Z,96540.75
2022-12-08T01:13:44.117Z,96543.13
2022-12-08T01:16:42.963Z,96541.00
2022-12-08T01:19:13.044Z,96543.13
2022-12-08T01:21:44.481Z,96546.88
2022-12-08T01:24:14.296Z,96543.13
2022-12-08T01:26:43.700Z,96546.06
2022-12-08T01:29:12.590Z,96546.31
2022-12-08T01:31:41.693Z,96551.09
2022-12-08T01:34:11.909Z,96549.50
2022-12-08T01:36:41.417Z,96544.97
2022-12-08T01:39:15.747Z,96540.44
2022-12-08T01:41:45.243Z,96545.50
2022-12-08T01:44:51.090Z,96534.09
2022-12-08T01:47:20.178Z,96533.84
2022-12-08T01:49:49.705Z,96532.53
2022-12-08T01:52:23.873Z,96530.91
2022-12-08T01:54:55.849Z,96524.53
2022-12-08T01:57:26.926Z,96524.25
2022-12-08T01:59:58.423Z,96519.50
2022-12-08T02:02:31.617Z,96517.66
2022-12-08T02:05:00.873Z,96503.56
2022-12-08T02:07:29.678Z,96511.56
2022-12-08T02:10:00.111Z,96501.75
2022-12-08T02:12:29.389Z,96501.72
2022-12-08T02:15:03.387Z,96497.47
2022-12-08T02:17:47.750Z,96494.81
2022-12-08T02:20:39.892Z,96489.75
2022-12-08T02:23:14.827Z,96487.38
2022-12-08T02:25:59.876Z,96484.16
2022-12-08T02:28:43.852Z,96481.53
2022-12-08T02:31:19.883Z,96492.16
2022-12-08T02:34:09.994Z,96490.72
2022-12-08T02:36:45.847Z,96483.00
2022-12-08T02:39:23.409Z,96479.06
2022-12-08T02:41:56.438Z,96471.53
2022-12-08T02:44:31.063Z,96470.53
2022-12-08T02:47:02.080Z,96470.22
2022-12-08T02:49:33.041Z,96470.28
2022-12-08T02:52:39.776Z,96483.50
2022-12-08T02:55:12.277Z,96481.41
2022-12-08T02:57:49.481Z,96475.81
2022-12-08T03:00:19.396Z,96471.31
2022-12-08T03:03:01.435Z,96469.72
2022-12-08T03:05:42.480Z,96462.06
2022-12-08T03:08:18.409Z,96460.75
2022-12-08T03:10:53.720Z,96460.22
2022-12-08T03:13:25.990Z,96471.81
2022-12-08T03:15:56.541Z,96482.88
2022-12-08T03:18:30.291Z,96461.59
2022-12-08T03:21:00.912Z,96454.25
2022-12-08T03:23:29.657Z,96455.63
2022-12-08T03:26:01.391Z,96459.38
2022-12-08T03:28:30.659Z,96458.59
2022-12-08T03:31:01.646Z,96449.34
2022-12-08T03:33:32.283Z,96451.19
2022-12-08T03:36:03.898Z,96453.28
2022-12-08T03:38:39.364Z,96452.25
2022-12-08T03:41:23.285Z,96438.47
2022-12-08T03:43:54.147Z,96441.59
2022-12-08T03:48:55.689Z,96441.38
2022-12-08T03:51:27.389Z,96440.03
2022-12-08T03:53:56.799Z,96438.47
2022-12-08T03:56:27.187Z,96436.34
2022-12-08T03:58:56.171Z,96435.31
2022-12-08T04:01:25.619Z,96433.69
2022-12-08T04:03:54.876Z,96433.16
2022-12-08T04:06:25.715Z,96436.31
2022-12-08T04:08:54.709Z,96442.19
2022-12-08T04:11:23.704Z,96446.69
2022-12-08T04:13:53.105Z,96455.41
2022-12-08T04:16:24.258Z,96446.09
2022-12-08T04:18:53.734Z,96440.53
2022-12-08T04:21:22.786Z,96440.25
2022-12-08T04:23:59.162Z,96436.06
2022-12-08T04:26:30.352Z,96437.91
2022-12-08T04:28:58.955Z,96437.88
2022-12-08T04:31:27.937Z,96438.19
2022-12-08T04:33:57.040Z,96445.84
2022-12-08T04:36:25.931Z,96437.84
2022-12-08T04:38:56.063Z,96438.13
2022-12-08T04:41:24.942Z,96437.06
2022-12-08T04:43:53.819Z,96427.81
2022-12-08T04:46:22.654Z,96421.16
2022-12-08T04:48:51.185Z,96424.91
2022-12-08T04:51:21.074Z,96414.84
2022-12-08T04:53:50.322Z,96418.53
2022-12-08T04:56:20.961Z,96422.78
2022-12-08T04:58:49.746Z,96422.44
2022-12-08T05:01:18.400Z,96423.34
2022-12-08T05:03:47.069Z,96420.81
2022-12-08T05:06:15.806Z,96419.00
2022-12-08T05:08:45.079Z,96413.72
2022-12-08T05:11:15.211Z,96418.22
2022-12-08T05:13:45.715Z,96419.22
2022-12-08T05:16:16.397Z,96422.72
2022-12-08T05:18:45.290Z,96419.81
2022-12-08T05:21:14.382Z,96415.31
2022-12-08T05:23:43.581Z,96414.53
2022-12-08T05:26:12.674Z,96412.94
2022-12-08T05:28:43.320Z,96410.28
2022-12-08T05:31:15.618Z,96412.44
2022-12-08T05:33:45.190Z,96408.19
2022-12-08T05:36:16.435Z,96413.00
2022-12-08T05:38:45.580Z,96403.13
2022-12-08T05:41:18.977Z,96414.28
2022-12-08T05:43:49.049Z,96409.78
2022-12-08T05:46:19.586Z,96403.13
2022-12-08T05:48:48.525Z,96399.16
2022-12-08T05:51:19.884Z,96398.13
2022-12-08T05:53:50.144Z,96392.03
2022-12-08T05:56:19.447Z,96396.00
2022-12-08T05:58:51.526Z,96391.72
2022-12-08T06:01:23.578Z,96390.59
2022-12-08T06:03:52.803Z,96390.59
2022-12-08T06:06:22.504Z,96394.31
2022-12-08T06:08:52.069Z,96393.78
2022-12-08T06:11:24.779Z,96396.97
2022-12-08T06:13:54.801Z,96400.16
2022-12-08T06:16:26.380Z,96403.66
2022-12-08T06:18:55.550Z,96394.34
2022-12-08T06:21:25.466Z,96393.31
2022-12-08T06:23:55.460Z,96398.63
2022-12-08T06:26:24.458Z,96394.66
2022-12-08T06:28:54.044Z,96393.31
2022-12-08T06:31:26.327Z,96386.41
2022-12-08T06:33:56.788Z,96396.75
2022-12-08T06:36:28.033Z,96393.25
2022-12-08T06:38:57.026Z,96385.81
2022-12-08T06:41:25.994Z,96396.47
2022-12-08T06:43:59.880Z,96399.66
2022-12-08T06:46:30.447Z,96390.66
2022-12-08T06:48:59.951Z,96392.53
2022-12-08T06:51:29.104Z,96395.38
2022-12-08T06:53:58.550Z,96398.06
2022-12-08T06:56:28.165Z,96396.47
2022-12-08T06:59:22.260Z,96400.44
2022-12-08T07:01:52.513Z,96401.25
2022-12-08T07:04:21.668Z,96398.59
2022-12-08T07:06:51.391Z,96396.22
2022-12-08T07:09:20.386Z,96399.13
2022-12-08T07:11:49.541Z,96402.56
2022-12-08T07:14:20.531Z,96390.63
2022-12-08T07:16:49.380Z,96398.06
2022-12-08T07:19:20.356Z,96389.88
2022-12-08T07:21:49.741Z,96388.03
2022-12-08T07:24:19.067Z,96382.75
2022-12-08T07:26:48.268Z,96391.25
2022-12-08T07:29:20.483Z,96397.03
2022-12-08T07:31:53.520Z,96396.97
2022-12-08T07:34:23.790Z,96398.00
2022-12-08T07:36:53.049Z,96394.88
2022-12-08T07:39:21.938Z,96393.56
2022-12-08T07:41:51.034Z,96397.81
2022-12-08T07:44:20.129Z,96399.66
2022-12-08T07:46:48.926Z,96395.72
2022-12-08T07:49:18.116Z,96393.31
2022-12-08T07:51:48.528Z,96386.91
2022-12-08T07:54:17.643Z,96388.53
2022-12-08T07:56:46.722Z,96388.81
2022-12-08T07:59:15.522Z,96399.69
2022-12-08T08:01:45.757Z,96403.44
2022-12-08T08:04:14.870Z,96407.09
2022-12-08T08:06:48.144Z,96409.47
2022-12-08T08:09:17.649Z,96421.19
2022-12-08T08:12:07.172Z,96409.97
2022-12-08T08:14:38.958Z,96411.81
2022-12-08T08:17:08.134Z,96413.72
2022-12-08T08:19:37.488Z,96422.22
2022-12-08T08:22:08.224Z,96412.41
2022-12-08T08:24:40.331Z,96413.69
2022-12-08T08:27:14.100Z,96413.47
2022-12-08T08:29:43.230Z,96413.44
2022-12-08T08:32:11.982Z,96418.28
2022-12-08T08:34:41.286Z,96412.47
2022-12-08T08:37:12.062Z,96412.75
2022-12-08T08:39:41.209Z,96414.03
2022-12-08T08:42:10.264Z,96414.06
2022-12-08T08:44:39.568Z,96409.84
2022-12-08T08:47:08.823Z,96410.66
2022-12-08T08:49:37.898Z,96417.81
2022-12-08T08:52:07.443Z,96408.81
2022-12-08T08:54:37.533Z,96406.22
2022-12-08T08:57:06.514Z,96407.78
2022-12-08T08:59:35.507Z,96404.09
2022-12-08T09:02:04.275Z,96412.06
2022-12-08T09:04:33.110Z,96407.94
2022-12-08T09:07:02.280Z,96403.00
2022-12-08T09:09:31.502Z,96403.00
2022-12-08T09:12:01.984Z,96407.84
2022-12-08T09:14:31.080Z,96406.78
2022-12-08T09:16:59.993Z,96409.47
2022-12-08T09:19:28.706Z,96414.75
2022-12-08T09:21:57.370Z,96412.63
2022-12-08T09:24:25.835Z,96406.25
2022-12-08T09:26:54.872Z,96407.34
2022-12-08T09:29:27.705Z,96403.09
2022-12-08T09:31:58.521Z,96399.94
2022-12-08T09:34:27.216Z,96395.72
2022-12-08T09:36:56.326Z,96394.66
2022-12-08T09:39:25.108Z,96384.28
2022-12-08T09:41:57.657Z,96386.19
2022-12-08T09:44:54.841Z,96377.66
2022-12-08T09:47:30.640Z,96368.09
2022-12-08T09:50:07.973Z,96362.03
2022-12-08T09:52:40.722Z,96370.78
2022-12-08T09:55:17.089Z,96364.41
2022-12-08T09:57:48.477Z,96362.25
2022-12-08T10:00:21.013Z,96369.19
2022-12-08T10:02:49.664Z,96365.47
2022-12-08T10:05:18.865Z,96356.94
2022-12-08T10:07:49.982Z,96357.75
2022-12-08T10:10:29.281Z,96362.25
2022-12-08T10:13:03.452Z,96358.53
2022-12-08T10:15:41.782Z,96354.81
2022-12-08T10:18:17.256Z,96352.97
2022-12-08T10:20:50.650Z,96337.84
2022-12-08T10:23:32.755Z,96341.00
2022-12-08T10:26:05.034Z,96337.81
2022-12-08T10:28:38.770Z,96336.50
2022-12-08T10:31:18.510Z,96339.94
2022-12-08T10:33:48.547Z,96343.91
2022-12-08T10:36:17.449Z,96340.47
2022-12-08T10:38:46.367Z,96331.16
2022-12-08T10:41:18.368Z,96324.53
2022-12-08T10:43:50.335Z,96312.81
2022-12-08T10:46:22.845Z,96308.28
2022-12-08T10:48:54.135Z,96301.09
2022-12-08T10:51:29.988Z,96302.47
2022-12-08T10:53:59.492Z,96304.59
2022-12-08T10:56:29.942Z,96287.81
2022-12-08T10:59:16.195Z,96297.34
2022-12-08T11:01:50.835Z,96285.91
2022-12-08T11:04:21.103Z,96292.06
2022-12-08T11:06:51.024Z,96283.56
2022-12-08T11:09:38.924Z,96278.22
2022-12-08T11:12:15.075Z,96283.03
2022-12-08T11:14:52.051Z,96279.84
2022-12-08T11:17:28.585Z,96277.69
2022-12-08T11:19:59.795Z,96272.91
2022-12-08T11:22:32.356Z,96273.91
2022-12-08T11:25:03.108Z,96272.31
2022-12-08T11:27:34.636Z,96268.66
2022-12-08T11:30:04.604Z,96267.06
2022-12-08T11:32:36.496Z,96257.56
2022-12-08T11:35:07.260Z,96259.19
2022-12-08T11:37:39.538Z,96259.69
2022-12-08T11:40:18.363Z,96261.22
2022-12-08T11:42:55.108Z,96251.34
2022-12-08T11:45:27.414Z,96252.38
2022-12-08T11:48:05.089Z,96248.44
2022-12-08T11:50:42.156Z,96242.00
2022-12-08T11:53:19.345Z,96242.53
2022-12-08T11:55:52.534Z,96236.38
2022-12-08T11:58:24.323Z,96237.94
2022-12-08T12:00:52.941Z,96231.06
2022-12-08T12:03:30.004Z,96229.47
2022-12-08T12:06:38.107Z,96227.53
2022-12-08T12:09:13.593Z,96222.75
2022-12-08T12:12:06.725Z,96224.06
2022-12-08T12:15:01.005Z,96211.13
2022-12-08T12:17:38.346Z,96209.78
2022-12-08T12:20:14.197Z,96210.75
2022-12-08T12:22:43.904Z,96214.47
2022-12-08T12:25:18.822Z,96214.19
2022-12-08T12:27:49.569Z,96212.06
2022-12-08T12:30:23.268Z,96210.88
2022-12-08T12:32:55.196Z,96205.06
2022-12-08T12:35:32.287Z,96203.78
2022-12-08T12:38:25.863Z,96206.41
2022-12-08T12:41:00.156Z,96200.09
2022-12-08T12:43:33.692Z,96196.28
2022-12-08T12:46:40.731Z,96195.72
2022-12-08T12:49:48.801Z,96191.47
2022-12-08T12:52:43.959Z,96197.44
2022-12-08T12:55:26.695Z,96192.88
2022-12-08T12:57:56.715Z,96189.38
2022-12-08T13:00:26.954Z,96193.59
2022-12-08T13:02:57.650Z,96192.19
2022-12-08T13:05:28.080Z,96192.44
2022-12-08T13:07:59.820Z,96182.03
2022-12-08T13:10:31.765Z,96196.69
2022-12-08T13:13:08.908Z,96195.84
2022-12-08T13:15:39.537Z,96189.78
2022-12-08T13:18:09.453Z,96190.63
2022-12-08T13:20:43.472Z,96184.88
2022-12-08T13:23:29.162Z,96187.66
2022-12-08T13:26:17.700Z,96182.81
2022-12-08T13:29:07.306Z,96181.94
2022-12-08T13:31:46.613Z,96183.22
2022-12-08T13:34:22.361Z,96191.38
2022-12-08T13:37:03.958Z,96171.91
2022-12-08T13:39:41.935Z,96176.09
2022-12-08T13:42:17.723Z,96180.00
2022-12-08T13:45:19.702Z,96173.91
2022-12-08T13:48:06.022Z,96181.84
2022-12-08T13:59:12.080Z,96171.56
2022-12-08T14:01:45.125Z,96176.31
2022-12-08T14:07:06.945Z,96167.25
2022-12-08T14:09:37.558Z,96163.13
2022-12-08T14:12:10.022Z,96169.69
2022-12-08T14:17:30.732Z,96180.59
2022-12-08T14:20:01.096Z,96181.09
2022-12-08T14:22:34.028Z,96174.44
2022-12-08T14:25:02.741Z,96173.91
2022-12-08T14:27:36.412Z,96173.13
2022-12-08T14:30:08.542Z,96174.72
2022-12-08T14:32:40.594Z,96174.28
2022-12-08T14:35:27.420Z,96169.16
2022-12-08T14:37:58.795Z,96170.19
2022-12-08T14:40:32.888Z,96171.03
2022-12-08T14:43:18.941Z,96169.16
2022-12-08T14:45:50.920Z,96167.84
2022-12-08T14:48:21.120Z,96168.41
2022-12-08T14:51:01.942Z,96161.97
2022-12-08T14:53:37.937Z,96168.91
2022-12-08T14:56:16.846Z,96162.81
2022-12-08T14:58:47.465Z,96157.00
2022-12-08T15:01:18.208Z,96162.03
2022-12-08T15:03:50.902Z,96163.94
2022-12-08T15:06:22.030Z,96162.91
2022-12-08T15:08:58.634Z,96157.63
2022-12-08T15:11:35.549Z,96163.19
2022-12-08T15:14:05.994Z,96166.38
2022-12-08T15:16:40.821Z,96167.44
2022-12-08T15:19:24.462Z,96164.78
2022-12-08T15:21:53.458Z,96162.66
2022-12-08T15:24:23.662Z,96153.34
2022-12-08T15:26:53.079Z,96160.25
2022-12-08T15:29:24.878Z,96156.56
2022-12-08T15:31:55.636Z,96160.03
2022-12-08T15:34:25.040Z,96157.38
2022-12-08T15:36:55.218Z,96165.38
2022-12-08T15:39:33.104Z,96158.06
2022-12-08T15:42:02.534Z,96169.19
2022-12-08T15:44:33.031Z,96155.38
2022-12-08T15:47:01.803Z,96156.41
2022-12-08T15:49:30.825Z,96162.84
2022-12-08T15:52:11.107Z,96159.16
2022-12-08T15:54:40.460Z,96165.25
2022-12-08T15:57:25.028Z,96169.38
2022-12-08T16:00:19.207Z,96165.06
2022-12-08T16:06:10.212Z,96171.97
2022-12-08T16:08:49.380Z,96164.22
2022-12-08T16:12:05.417Z,96171.38
2022-12-08T16:17:30.570Z,96170.84
2022-12-08T16:20:00.162Z,96169.25
2022-12-08T16:25:22.039Z,96170.88
2022-12-08T16:28:05.536Z,96155.47
2022-12-08T16:30:37.824Z,96153.59
2022-12-08T16:33:07.964Z,96149.59
2022-12-08T16:35:36.690Z,96148.56
2022-12-08T16:38:05.666Z,96146.41
2022-12-08T16:40:54.635Z,96148.03
2022-12-08T16:43:22.265Z,96147.53
2022-12-08T16:45:51.173Z,96160.31
2022-12-08T16:48:22.653Z,96153.38
2022-12-08T16:50:51.447Z,96146.25
2022-12-08T16:53:20.467Z,96154.47
2022-12-08T16:55:50.131Z,96149.47
2022-12-08T16:58:19.974Z,96145.75
2022-12-08T17:00:49.419Z,96145.00
2022-12-08T17:03:20.715Z,96139.16
2022-12-08T17:05:49.871Z,96135.47
2022-12-08T17:08:18.767Z,96143.41
2022-12-08T17:11:07.659Z,96151.41
2022-12-08T17:13:39.014Z,96140.81
2022-12-08T17:16:19.443Z,96145.63
2022-12-08T17:18:50.212Z,96143.50
2022-12-08T17:21:22.179Z,96142.69
2022-12-08T17:23:51.379Z,96151.44
2022-12-08T17:26:20.271Z,96150.66
2022-12-08T17:29:00.454Z,96149.66
2022-12-08T17:32:06.672Z,96137.75
2022-12-08T17:34:37.427Z,96143.06
2022-12-08T17:37:06.628Z,96145.19
2022-12-08T17:39:35.612Z,96143.06
2022-12-08T17:42:04.933Z,96127.16
2022-12-08T17:44:34.379Z,96125.03
2022-12-08T17:47:04.707Z,96132.44
2022-12-08T17:49:34.137Z,96130.84
2022-12-08T17:52:07.456Z,96123.16
2022-12-08T17:54:36.612Z,96119.69
2022-12-08T17:57:12.199Z,96110.41
2022-12-08T17:59:41.195Z,96116.28
2022-12-08T18:02:11.873Z,96118.66
2022-12-08T18:04:40.818Z,96122.38
2022-12-08T18:07:11.333Z,96126.09
2022-12-08T18:09:40.573Z,96123.47
2022-12-08T18:12:09.850Z,96121.84
2022-12-08T18:14:39.141Z,96108.31
2022-12-08T18:17:07.937Z,96124.50
2022-12-08T18:19:37.243Z,96119.75
2022-12-08T18:22:06.107Z,96122.94
2022-12-08T18:24:36.869Z,96112.88
2022-12-08T18:27:05.862Z,96117.38
2022-12-08T18:29:35.164Z,96108.09
2022-12-08T18:32:04.082Z,96117.09
2022-12-08T18:34:32.845Z,96122.41
2022-12-08T18:37:01.636Z,96118.97
2022-12-08T18:39:31.848Z,96111.78
2022-12-08T18:42:22.694Z,96121.84
2022-12-08T18:44:52.329Z,96125.59
2022-12-08T18:47:21.472Z,96124.53
2022-12-08T18:49:51.492Z,96129.28
2022-12-08T18:52:28.183Z,96134.63
2022-12-08T18:55:07.350Z,96128.78
2022-12-08T18:57:38.472Z,96131.94
2022-12-08T19:00:09.264Z,96136.19
2022-12-08T19:02:41.502Z,96119.75
2022-12-08T19:05:11.646Z,96128.78
2022-12-08T19:07:42.644Z,96112.88
2022-12-08T19:10:13.242Z,96114.19
2022-12-08T19:12:43.614Z,96111.81
2022-12-08T19:15:13.382Z,96113.94
2022-12-08T19:17:42.377Z,96110.22
2022-12-08T19:20:12.680Z,96116.84
2022-12-08T19:22:41.796Z,96115.53
2022-12-08T19:25:12.992Z,96115.00
2022-12-08T19:27:46.955Z,96113.66
2022-12-08T19:30:17.392Z,96118.47
2022-12-08T19:33:02.059Z,96118.19
2022-12-08T19:35:32.268Z,96113.16
2022-12-08T19:38:01.241Z,96114.47
2022-12-08T19:40:47.479Z,96119.78
2022-12-08T19:43:47.992Z,96118.19
2022-12-08T19:46:20.597Z,96119.22
2022-12-08T19:48:49.883Z,96117.13
2022-12-08T19:51:18.872Z,96128.78
2022-12-08T19:53:48.133Z,96131.72
2022-12-08T19:56:17.561Z,96125.09
2022-12-08T19:58:47.959Z,96120.31
2022-12-08T20:01:17.870Z,96120.03
2022-12-08T20:03:46.922Z,96118.72
2022-12-08T20:06:17.589Z,96107.84
2022-12-08T20:08:50.627Z,96112.09
2022-12-08T20:11:20.463Z,96107.84
2022-12-08T20:13:51.263Z,96104.41
2022-12-08T20:16:20.889Z,96100.69
2022-12-08T20:18:49.799Z,96101.22
2022-12-08T20:21:19.593Z,96093.25
2022-12-08T20:23:50.044Z,96088.50
2022-12-08T20:26:20.653Z,96086.09
2022-12-08T20:28:53.297Z,96102.56
2022-12-08T20:31:24.105Z,96111.31
2022-12-08T20:33:54.119Z,96106.50
2022-12-08T20:36:23.634Z,96108.66
2022-12-08T20:38:53.929Z,96115.00
2022-12-08T20:41:24.860Z,96103.88
2022-12-08T20:43:55.292Z,96102.28
2022-12-08T20:46:24.738Z,96097.50
2022-12-08T20:48:53.989Z,96100.16
2022-12-08T20:51:31.678Z,96095.66
2022-12-08T20:54:04.736Z,96097.50
2022-12-08T20:56:34.367Z,96097.50
2022-12-08T20:59:07.322Z,96095.66
2022-12-08T21:01:36.771Z,96102.25
2022-12-08T21:04:06.249Z,96107.56
2022-12-08T21:06:38.007Z,96106.00
2022-12-08T21:09:07.323Z,96112.88
2022-12-08T21:11:39.575Z,96108.88
2022-12-08T21:14:10.234Z,96110.75
2022-12-08T21:16:42.539Z,96108.88
2022-12-08T21:19:11.722Z,96093.78
2022-12-08T21:21:42.218Z,96095.91
2022-12-08T21:24:11.510Z,96091.13
2022-12-08T21:26:41.028Z,96088.47
2022-12-08T21:29:13.106Z,96084.25
2022-12-08T21:31:42.318Z,96084.78
2022-12-08T21:34:12.129Z,96084.78
2022-12-08T21:36:42.739Z,96088.47
2022-12-08T21:39:13.363Z,96082.06
2022-12-08T21:42:00.358Z,96082.06
2022-12-08T21:44:30.744Z,96078.31
2022-12-08T21:47:00.338Z,96087.34
2022-12-08T21:49:29.797Z,96079.13
2022-12-08T21:51:58.828Z,96079.41
2022-12-08T21:54:30.597Z,96082.06
2022-12-08T21:57:03.019Z,96095.84
2022-12-08T21:59:33.753Z,96093.72
2022-12-08T22:02:03.131Z,96093.72
2022-12-08T22:04:32.211Z,96098.44
2022-12-08T22:07:01.606Z,96101.09
2022-12-08T22:09:31.133Z,96101.63
2022-12-08T22:12:00.354Z,96092.88
2022-12-08T22:14:29.799Z,96098.97
2022-12-08T22:17:00.199Z,96104.00
2022-12-08T22:19:29.353Z,96101.91
2022-12-08T22:21:58.506Z,96102.94
2022-12-08T22:24:27.852Z,96099.50
2022-12-08T22:26:57.161Z,96101.34
2022-12-08T22:29:26.665Z,96106.94
2022-12-08T22:31:56.003Z,96094.75
2022-12-08T22:34:26.759Z,96099.47
2022-12-08T22:36:58.784Z,96098.41
2022-12-08T22:39:28.128Z,96089.94
2022-12-08T22:41:57.530Z,96085.69
2022-12-08T22:44:26.731Z,96085.44
2022-12-08T22:46:56.182Z,96092.03
2022-12-08T22:49:27.092Z,96083.56
2022-12-08T22:51:56.377Z,96085.69
2022-12-08T22:54:25.830Z,96084.63
2022-12-08T22:56:55.435Z,96084.06
2022-12-08T22:59:27.193Z,96081.41
2022-12-08T23:01:56.427Z,96071.88
2022-12-08T23:04:52.381Z,96078.50
2022-12-08T23:07:21.569Z,96069.75
2022-12-08T23:09:50.846Z,96059.16
2022-12-08T23:12:20.170Z,96067.34
2022-12-08T23:14:49.116Z,96058.63
2022-12-08T23:17:17.930Z,96059.16
2022-12-08T23:19:50.048Z,96051.72
2022-12-08T23:22:20.796Z,96051.72
2022-12-08T23:24:49.731Z,96045.91
2022-12-08T23:27:21.662Z,96049.09
2022-12-08T23:29:50.449Z,96049.31
2022-12-08T23:32:19.985Z,96054.06
2022-12-08T23:34:49.470Z,96064.97
2022-12-08T23:37:19.196Z,96069.19
2022-12-08T23:39:49.910Z,96061.75
2022-12-08T23:42:19.893Z,96052.25
2022-12-08T23:44:48.957Z,96047.22
2022-12-08T23:47:17.980Z,96043.25
2022-12-08T23:49:47.191Z,96040.88
2022-12-08T23:52:16.511Z,96035.34
2022-12-08T23:54:46.117Z,96021.59
2022-12-08T23:57:17.153Z,96022.63
2022-12-08T23:59:46.402Z,96025.81
